sensor_id;sensor_type;location;lat;lon;timestamp;P1;durP1;ratioP1;P2;durP2;ratioP2
23802;SDS011;12082;51.786;6.018;2022-12-18T00:01:50;44.50;;;31.63;;
23802;SDS011;12082;51.786;6.018;2022-12-18T00:04:21;47.23;;;31.37;;
23802;SDS011;12082;51.786;6.018;2022-12-18T00:06:48;46.43;;;30.87;;
23802;SDS011;12082;51.786;6.018;2022-12-18T00:09:14;44.53;;;30.50;;
23802;SDS011;12082;51.786;6.018;2022-12-18T00:11:40;50.10;;;31.97;;
23802;SDS011;12082;51.786;6.018;2022-12-18T00:14:06;51.27;;;30.97;;
23802;SDS011;12082;51.786;6.018;2022-12-18T00:16:32;51.27;;;31.80;;
23802;SDS011;12082;51.786;6.018;2022-12-18T00:19:00;50.93;;;32.03;;
23802;SDS011;12082;51.786;6.018;2022-12-18T00:21:27;47.33;;;29.23;;
23802;SDS011;12082;51.786;6.018;2022-12-18T00:23:53;42.87;;;31.77;;
23802;SDS011;12082;51.786;6.018;2022-12-18T00:26:20;45.77;;;29.93;;
23802;SDS011;12082;51.786;6.018;2022-12-18T00:28:47;45.23;;;29.17;;
23802;SDS011;12082;51.786;6.018;2022-12-18T00:31:15;40.83;;;29.30;;
23802;SDS011;12082;51.786;6.018;2022-12-18T00:33:41;37.47;;;28.17;;
23802;SDS011;12082;51.786;6.018;2022-12-18T00:36:08;35.87;;;28.87;;
23802;SDS011;12082;51.786;6.018;2022-12-18T00:38:35;42.87;;;29.57;;
23802;SDS011;12082;51.786;6.018;2022-12-18T00:41:01;50.43;;;30.40;;
23802;SDS011;12082;51.786;6.018;2022-12-18T00:43:27;48.20;;;29.13;;
23802;SDS011;12082;51.786;6.018;2022-12-18T00:45:53;44.90;;;28.73;;
23802;SDS011;12082;51.786;6.018;2022-12-18T00:48:19;40.47;;;29.00;;
23802;SDS011;12082;51.786;6.018;2022-12-18T00:50:47;47.50;;;27.60;;
23802;SDS011;12082;51.786;6.018;2022-12-18T00:53:13;42.03;;;28.53;;
23802;SDS011;12082;51.786;6.018;2022-12-18T00:55:39;36.67;;;27.57;;
23802;SDS011;12082;51.786;6.018;2022-12-18T00:58:06;41.13;;;28.30;;
23802;SDS011;12082;51.786;6.018;2022-12-18T01:00:31;35.57;;;27.23;;
23802;SDS011;12082;51.786;6.018;2022-12-18T01:02:58;45.90;;;28.40;;
23802;SDS011;12082;51.786;6.018;2022-12-18T01:05:24;37.63;;;28.43;;
23802;SDS011;12082;51.786;6.018;2022-12-18T01:07:50;34.93;;;28.20;;
23802;SDS011;12082;51.786;6.018;2022-12-18T01:10:16;37.47;;;27.93;;
23802;SDS011;12082;51.786;6.018;2022-12-18T01:12:42;41.87;;;29.77;;
23802;SDS011;12082;51.786;6.018;2022-12-18T01:15:09;37.90;;;25.90;;
23802;SDS011;12082;51.786;6.018;2022-12-18T01:17:35;32.80;;;27.07;;
23802;SDS011;12082;51.786;6.018;2022-12-18T01:20:01;35.37;;;27.83;;
23802;SDS011;12082;51.786;6.018;2022-12-18T01:22:27;29.40;;;24.60;;
23802;SDS011;12082;51.786;6.018;2022-12-18T01:24:53;38.87;;;26.70;;
23802;SDS011;12082;51.786;6.018;2022-12-18T01:27:19;34.37;;;26.90;;
23802;SDS011;12082;51.786;6.018;2022-12-18T01:29:45;33.50;;;26.23;;
23802;SDS011;12082;51.786;6.018;2022-12-18T01:32:11;32.63;;;26.37;;
23802;SDS011;12082;51.786;6.018;2022-12-18T01:34:37;39.00;;;25.90;;
23802;SDS011;12082;51.786;6.018;2022-12-18T01:37:04;39.13;;;26.67;;
23802;SDS011;12082;51.786;6.018;2022-12-18T01:39:30;40.87;;;26.23;;
23802;SDS011;12082;51.786;6.018;2022-12-18T01:42:00;36.97;;;26.63;;
23802;SDS011;12082;51.786;6.018;2022-12-18T01:49:57;34.97;;;26.10;;
23802;SDS011;12082;51.786;6.018;2022-12-18T01:52:25;36.63;;;24.80;;
23802;SDS011;12082;51.786;6.018;2022-12-18T01:54:52;28.00;;;22.90;;
23802;SDS011;12082;51.786;6.018;2022-12-18T01:57:18;32.33;;;24.67;;
23802;SDS011;12082;51.786;6.018;2022-12-18T01:59:45;30.80;;;24.27;;
23802;SDS011;12082;51.786;6.018;2022-12-18T02:02:13;35.43;;;26.27;;
23802;SDS011;12082;51.786;6.018;2022-12-18T02:04:41;33.13;;;25.60;;
23802;SDS011;12082;51.786;6.018;2022-12-18T02:10:20;29.47;;;25.17;;
23802;SDS011;12082;51.786;6.018;2022-12-18T02:12:28;25.73;;;23.03;;
23802;SDS011;12082;51.786;6.018;2022-12-18T02:17:22;32.17;;;24.80;;
23802;SDS011;12082;51.786;6.018;2022-12-18T02:22:25;32.80;;;25.53;;
23802;SDS011;12082;51.786;6.018;2022-12-18T02:25:13;29.93;;;24.30;;
23802;SDS011;12082;51.786;6.018;2022-12-18T02:27:41;29.80;;;24.97;;
23802;SDS011;12082;51.786;6.018;2022-12-18T02:30:10;28.03;;;24.77;;
23802;SDS011;12082;51.786;6.018;2022-12-18T02:32:40;30.70;;;22.73;;
23802;SDS011;12082;51.786;6.018;2022-12-18T02:35:12;37.43;;;24.33;;
23802;SDS011;12082;51.786;6.018;2022-12-18T02:37:39;29.33;;;23.70;;
23802;SDS011;12082;51.786;6.018;2022-12-18T02:40:05;31.43;;;24.40;;
23802;SDS011;12082;51.786;6.018;2022-12-18T02:42:32;31.37;;;23.63;;
23802;SDS011;12082;51.786;6.018;2022-12-18T02:44:58;30.03;;;23.50;;
23802;SDS011;12082;51.786;6.018;2022-12-18T02:47:25;33.70;;;23.50;;
23802;SDS011;12082;51.786;6.018;2022-12-18T02:49:59;27.97;;;23.27;;
23802;SDS011;12082;51.786;6.018;2022-12-18T02:57:46;24.63;;;21.80;;
23802;SDS011;12082;51.786;6.018;2022-12-18T03:05:33;27.40;;;22.73;;
23802;SDS011;12082;51.786;6.018;2022-12-18T03:08:07;32.67;;;24.20;;
23802;SDS011;12082;51.786;6.018;2022-12-18T03:10:38;29.17;;;23.23;;
23802;SDS011;12082;51.786;6.018;2022-12-18T03:13:25;27.30;;;24.30;;
23802;SDS011;12082;51.786;6.018;2022-12-18T03:15:53;29.57;;;23.20;;
23802;SDS011;12082;51.786;6.018;2022-12-18T03:18:24;26.40;;;23.57;;
23802;SDS011;12082;51.786;6.018;2022-12-18T03:20:51;25.43;;;22.83;;
23802;SDS011;12082;51.786;6.018;2022-12-18T03:23:19;25.50;;;22.90;;
23802;SDS011;12082;51.786;6.018;2022-12-18T03:25:46;27.40;;;22.93;;
23802;SDS011;12082;51.786;6.018;2022-12-18T03:28:13;26.27;;;23.13;;
23802;SDS011;12082;51.786;6.018;2022-12-18T03:30:41;29.37;;;22.70;;
23802;SDS011;12082;51.786;6.018;2022-12-18T03:33:09;29.63;;;23.47;;
23802;SDS011;12082;51.786;6.018;2022-12-18T03:35:38;26.57;;;23.67;;
23802;SDS011;12082;51.786;6.018;2022-12-18T03:38:05;25.07;;;22.37;;
23802;SDS011;12082;51.786;6.018;2022-12-18T03:40:35;25.10;;;22.60;;
23802;SDS011;12082;51.786;6.018;2022-12-18T03:43:16;24.93;;;22.63;;
23802;SDS011;12082;51.786;6.018;2022-12-18T03:45:55;28.47;;;24.13;;
23802;SDS011;12082;51.786;6.018;2022-12-18T03:48:29;26.17;;;23.37;;
23802;SDS011;12082;51.786;6.018;2022-12-18T03:50:59;25.20;;;22.60;;
23802;SDS011;12082;51.786;6.018;2022-12-18T03:56:00;24.40;;;21.83;;
23802;SDS011;12082;51.786;6.018;2022-12-18T03:58:26;26.07;;;23.27;;
23802;SDS011;12082;51.786;6.018;2022-12-18T04:00:54;25.77;;;23.10;;
23802;SDS011;12082;51.786;6.018;2022-12-18T04:03:21;28.10;;;23.63;;
23802;SDS011;12082;51.786;6.018;2022-12-18T04:05:48;24.60;;;22.13;;
23802;SDS011;12082;51.786;6.018;2022-12-18T04:08:16;28.27;;;22.43;;
23802;SDS011;12082;51.786;6.018;2022-12-18T04:10:42;25.03;;;22.70;;
23802;SDS011;12082;51.786;6.018;2022-12-18T04:13:08;25.10;;;22.47;;
23802;SDS011;12082;51.786;6.018;2022-12-18T04:15:35;24.70;;;22.10;;
23802;SDS011;12082;51.786;6.018;2022-12-18T04:18:02;26.03;;;23.33;;
23802;SDS011;12082;51.786;6.018;2022-12-18T04:20:28;25.60;;;22.90;;
23802;SDS011;12082;51.786;6.018;2022-12-18T04:22:55;25.93;;;23.43;;
23802;SDS011;12082;51.786;6.018;2022-12-18T04:25:21;29.37;;;23.70;;
23802;SDS011;12082;51.786;6.018;2022-12-18T04:27:47;28.97;;;23.13;;
23802;SDS011;12082;51.786;6.018;2022-12-18T04:30:12;27.00;;;24.07;;
23802;SDS011;12082;51.786;6.018;2022-12-18T04:32:38;27.33;;;23.17;;
23802;SDS011;12082;51.786;6.018;2022-12-18T04:35:04;29.47;;;23.43;;
23802;SDS011;12082;51.786;6.018;2022-12-18T04:37:35;28.17;;;23.13;;
23802;SDS011;12082;51.786;6.018;2022-12-18T04:40:01;28.53;;;24.80;;
23802;SDS011;12082;51.786;6.018;2022-12-18T04:42:27;31.10;;;23.70;;
23802;SDS011;12082;51.786;6.018;2022-12-18T04:44:53;28.00;;;22.47;;
23802;SDS011;12082;51.786;6.018;2022-12-18T04:47:19;25.93;;;22.60;;
23802;SDS011;12082;51.786;6.018;2022-12-18T04:49:45;33.40;;;24.67;;
23802;SDS011;12082;51.786;6.018;2022-12-18T04:52:10;29.07;;;24.43;;
23802;SDS011;12082;51.786;6.018;2022-12-18T04:54:37;33.23;;;24.47;;
23802;SDS011;12082;51.786;6.018;2022-12-18T04:57:02;26.77;;;23.73;;
23802;SDS011;12082;51.786;6.018;2022-12-18T04:59:29;33.87;;;23.57;;
23802;SDS011;12082;51.786;6.018;2022-12-18T05:01:55;29.17;;;24.23;;
23802;SDS011;12082;51.786;6.018;2022-12-18T05:04:21;29.43;;;23.97;;
23802;SDS011;12082;51.786;6.018;2022-12-18T05:06:47;34.40;;;24.57;;
23802;SDS011;12082;51.786;6.018;2022-12-18T05:09:13;31.90;;;25.13;;
23802;SDS011;12082;51.786;6.018;2022-12-18T05:11:39;30.53;;;24.63;;
23802;SDS011;12082;51.786;6.018;2022-12-18T05:14:05;34.13;;;25.20;;
23802;SDS011;12082;51.786;6.018;2022-12-18T05:16:31;32.60;;;25.07;;
23802;SDS011;12082;51.786;6.018;2022-12-18T05:18:57;33.80;;;25.97;;
23802;SDS011;12082;51.786;6.018;2022-12-18T05:21:22;30.93;;;25.47;;
23802;SDS011;12082;51.786;6.018;2022-12-18T05:23:48;31.37;;;25.27;;
23802;SDS011;12082;51.786;6.018;2022-12-18T05:26:16;29.37;;;24.57;;
23802;SDS011;12082;51.786;6.018;2022-12-18T05:28:42;26.93;;;23.83;;
23802;SDS011;12082;51.786;6.018;2022-12-18T05:31:08;28.80;;;23.77;;
23802;SDS011;12082;51.786;6.018;2022-12-18T05:33:35;30.23;;;24.37;;
23802;SDS011;12082;51.786;6.018;2022-12-18T05:36:03;29.13;;;24.80;;
23802;SDS011;12082;51.786;6.018;2022-12-18T05:38:30;30.47;;;26.20;;
23802;SDS011;12082;51.786;6.018;2022-12-18T05:40:56;30.60;;;24.57;;
23802;SDS011;12082;51.786;6.018;2022-12-18T05:43:23;28.53;;;22.30;;
23802;SDS011;12082;51.786;6.018;2022-12-18T05:45:49;30.77;;;24.00;;
23802;SDS011;12082;51.786;6.018;2022-12-18T05:48:16;29.87;;;24.20;;
23802;SDS011;12082;51.786;6.018;2022-12-18T05:50:42;26.80;;;23.80;;
23802;SDS011;12082;51.786;6.018;2022-12-18T05:53:10;31.23;;;25.03;;
23802;SDS011;12082;51.786;6.018;2022-12-18T05:55:37;26.53;;;23.70;;
23802;SDS011;12082;51.786;6.018;2022-12-18T05:58:03;28.03;;;24.93;;
23802;SDS011;12082;51.786;6.018;2022-12-18T06:00:30;32.03;;;25.57;;
23802;SDS011;12082;51.786;6.018;2022-12-18T06:02:57;28.63;;;23.23;;
23802;SDS011;12082;51.786;6.018;2022-12-18T06:05:23;31.33;;;24.23;;
23802;SDS011;12082;51.786;6.018;2022-12-18T06:07:49;30.27;;;24.97;;
23802;SDS011;12082;51.786;6.018;2022-12-18T06:10:14;27.03;;;23.77;;
23802;SDS011;12082;51.786;6.018;2022-12-18T06:12:40;28.97;;;24.07;;
23802;SDS011;12082;51.786;6.018;2022-12-18T06:15:06;29.53;;;24.90;;
23802;SDS011;12082;51.786;6.018;2022-12-18T06:17:33;29.10;;;24.33;;
23802;SDS011;12082;51.786;6.018;2022-12-18T06:19:59;27.93;;;24.50;;
23802;SDS011;12082;51.786;6.018;2022-12-18T06:22:26;35.73;;;24.73;;
23802;SDS011;12082;51.786;6.018;2022-12-18T06:24:52;33.77;;;23.83;;
23802;SDS011;12082;51.786;6.018;2022-12-18T06:27:18;33.33;;;24.57;;
23802;SDS011;12082;51.786;6.018;2022-12-18T06:29:44;27.43;;;22.33;;
23802;SDS011;12082;51.786;6.018;2022-12-18T06:32:10;28.03;;;24.50;;
23802;SDS011;12082;51.786;6.018;2022-12-18T06:34:37;29.03;;;24.40;;
23802;SDS011;12082;51.786;6.018;2022-12-18T06:37:03;26.53;;;22.53;;
23802;SDS011;12082;51.786;6.018;2022-12-18T06:39:29;30.03;;;22.57;;
23802;SDS011;12082;51.786;6.018;2022-12-18T06:41:55;23.57;;;21.17;;
23802;SDS011;12082;51.786;6.018;2022-12-18T06:44:21;29.57;;;23.30;;
23802;SDS011;12082;51.786;6.018;2022-12-18T06:46:47;28.23;;;22.90;;
23802;SDS011;12082;51.786;6.018;2022-12-18T06:49:13;25.17;;;22.83;;
23802;SDS011;12082;51.786;6.018;2022-12-18T06:51:40;30.40;;;24.30;;
23802;SDS011;12082;51.786;6.018;2022-12-18T06:54:06;26.80;;;23.97;;
23802;SDS011;12082;51.786;6.018;2022-12-18T06:56:32;28.20;;;22.67;;
23802;SDS011;12082;51.786;6.018;2022-12-18T06:58:58;24.90;;;22.03;;
23802;SDS011;12082;51.786;6.018;2022-12-18T07:01:24;29.87;;;22.97;;
23802;SDS011;12082;51.786;6.018;2022-12-18T07:03:53;24.97;;;22.47;;
23802;SDS011;12082;51.786;6.018;2022-12-18T07:06:21;26.67;;;22.33;;
23802;SDS011;12082;51.786;6.018;2022-12-18T07:08:48;30.33;;;23.80;;
23802;SDS011;12082;51.786;6.018;2022-12-18T07:11:14;28.90;;;22.57;;
23802;SDS011;12082;51.786;6.018;2022-12-18T07:13:40;28.57;;;23.17;;
23802;SDS011;12082;51.786;6.018;2022-12-18T07:16:16;24.30;;;21.47;;
23802;SDS011;12082;51.786;6.018;2022-12-18T07:18:43;24.63;;;22.07;;
23802;SDS011;12082;51.786;6.018;2022-12-18T07:21:10;29.17;;;23.00;;
23802;SDS011;12082;51.786;6.018;2022-12-18T07:23:37;26.43;;;21.67;;
23802;SDS011;12082;51.786;6.018;2022-12-18T07:26:03;27.07;;;22.50;;
23802;SDS011;12082;51.786;6.018;2022-12-18T07:28:29;23.93;;;21.63;;
23802;SDS011;12082;51.786;6.018;2022-12-18T07:30:55;24.53;;;21.90;;
23802;SDS011;12082;51.786;6.018;2022-12-18T07:33:21;29.73;;;22.70;;
23802;SDS011;12082;51.786;6.018;2022-12-18T07:35:47;25.23;;;22.60;;
23802;SDS011;12082;51.786;6.018;2022-12-18T07:38:13;24.80;;;21.93;;
23802;SDS011;12082;51.786;6.018;2022-12-18T07:40:39;24.50;;;21.97;;
23802;SDS011;12082;51.786;6.018;2022-12-18T07:43:05;26.80;;;22.17;;
23802;SDS011;12082;51.786;6.018;2022-12-18T07:45:31;24.20;;;21.87;;
23802;SDS011;12082;51.786;6.018;2022-12-18T07:47:57;23.90;;;21.40;;
23802;SDS011;12082;51.786;6.018;2022-12-18T07:50:23;24.83;;;22.07;;
23802;SDS011;12082;51.786;6.018;2022-12-18T07:52:49;24.17;;;21.57;;
23802;SDS011;12082;51.786;6.018;2022-12-18T07:55:15;25.13;;;20.57;;
23802;SDS011;12082;51.786;6.018;2022-12-18T07:57:41;25.10;;;21.83;;
23802;SDS011;12082;51.786;6.018;2022-12-18T08:00:08;23.77;;;21.13;;
23802;SDS011;12082;51.786;6.018;2022-12-18T08:02:34;23.70;;;21.30;;
23802;SDS011;12082;51.786;6.018;2022-12-18T08:05:00;24.73;;;20.60;;
23802;SDS011;12082;51.786;6.018;2022-12-18T08:07:25;23.33;;;21.10;;
23802;SDS011;12082;51.786;6.018;2022-12-18T08:09:51;23.63;;;21.53;;
23802;SDS011;12082;51.786;6.018;2022-12-18T08:12:17;23.07;;;20.77;;
23802;SDS011;12082;51.786;6.018;2022-12-18T08:14:43;23.93;;;21.33;;
23802;SDS011;12082;51.786;6.018;2022-12-18T08:17:09;24.03;;;21.50;;
23802;SDS011;12082;51.786;6.018;2022-12-18T08:19:35;24.93;;;22.60;;
23802;SDS011;12082;51.786;6.018;2022-12-18T08:22:01;22.93;;;20.57;;
23802;SDS011;12082;51.786;6.018;2022-12-18T08:24:27;23.60;;;21.00;;
23802;SDS011;12082;51.786;6.018;2022-12-18T08:26:53;29.07;;;22.10;;
23802;SDS011;12082;51.786;6.018;2022-12-18T08:29:19;23.97;;;21.73;;
23802;SDS011;12082;51.786;6.018;2022-12-18T08:31:45;23.50;;;20.97;;
23802;SDS011;12082;51.786;6.018;2022-12-18T08:34:11;22.90;;;20.40;;
23802;SDS011;12082;51.786;6.018;2022-12-18T08:36:38;22.97;;;20.53;;
23802;SDS011;12082;51.786;6.018;2022-12-18T08:39:04;23.33;;;20.80;;
23802;SDS011;12082;51.786;6.018;2022-12-18T08:41:29;23.03;;;20.67;;
23802;SDS011;12082;51.786;6.018;2022-12-18T08:43:55;24.10;;;20.90;;
23802;SDS011;12082;51.786;6.018;2022-12-18T08:46:41;25.53;;;21.57;;
23802;SDS011;12082;51.786;6.018;2022-12-18T08:49:07;23.83;;;21.33;;
23802;SDS011;12082;51.786;6.018;2022-12-18T08:51:33;22.63;;;20.43;;
23802;SDS011;12082;51.786;6.018;2022-12-18T08:54:00;23.47;;;21.03;;
23802;SDS011;12082;51.786;6.018;2022-12-18T08:56:26;22.97;;;20.73;;
23802;SDS011;12082;51.786;6.018;2022-12-18T08:58:52;23.67;;;21.23;;
23802;SDS011;12082;51.786;6.018;2022-12-18T09:01:19;24.43;;;22.03;;
23802;SDS011;12082;51.786;6.018;2022-12-18T09:03:45;23.67;;;21.20;;
23802;SDS011;12082;51.786;6.018;2022-12-18T09:06:15;24.43;;;20.83;;
23802;SDS011;12082;51.786;6.018;2022-12-18T09:08:42;22.33;;;20.23;;
23802;SDS011;12082;51.786;6.018;2022-12-18T09:11:42;22.50;;;19.40;;
23802;SDS011;12082;51.786;6.018;2022-12-18T09:14:01;24.00;;;20.53;;
23802;SDS011;12082;51.786;6.018;2022-12-18T09:16:27;23.03;;;20.63;;
23802;SDS011;12082;51.786;6.018;2022-12-18T09:18:57;22.70;;;20.23;;
23802;SDS011;12082;51.786;6.018;2022-12-18T09:21:30;22.10;;;19.77;;
23802;SDS011;12082;51.786;6.018;2022-12-18T09:23:56;24.70;;;20.97;;
23802;SDS011;12082;51.786;6.018;2022-12-18T09:26:23;22.63;;;20.40;;
23802;SDS011;12082;51.786;6.018;2022-12-18T09:28:50;23.33;;;20.83;;
23802;SDS011;12082;51.786;6.018;2022-12-18T09:31:16;21.67;;;19.63;;
23802;SDS011;12082;51.786;6.018;2022-12-18T09:33:42;23.60;;;21.20;;
23802;SDS011;12082;51.786;6.018;2022-12-18T09:36:10;23.47;;;21.07;;
23802;SDS011;12082;51.786;6.018;2022-12-18T09:38:37;23.43;;;21.33;;
23802;SDS011;12082;51.786;6.018;2022-12-18T09:41:15;23.17;;;20.57;;
23802;SDS011;12082;51.786;6.018;2022-12-18T09:43:45;25.27;;;21.60;;
23802;SDS011;12082;51.786;6.018;2022-12-18T09:46:16;23.53;;;21.10;;
23802;SDS011;12082;51.786;6.018;2022-12-18T09:48:47;25.57;;;21.20;;
23802;SDS011;12082;51.786;6.018;2022-12-18T09:51:24;23.17;;;20.77;;
23802;SDS011;12082;51.786;6.018;2022-12-18T09:54:04;22.70;;;20.33;;
23802;SDS011;12082;51.786;6.018;2022-12-18T09:56:34;22.23;;;19.93;;
23802;SDS011;12082;51.786;6.018;2022-12-18T09:59:01;23.37;;;21.10;;
23802;SDS011;12082;51.786;6.018;2022-12-18T10:01:28;22.90;;;20.67;;
23802;SDS011;12082;51.786;6.018;2022-12-18T10:03:55;23.60;;;21.13;;
23802;SDS011;12082;51.786;6.018;2022-12-18T10:06:24;22.83;;;20.53;;
23802;SDS011;12082;51.786;6.018;2022-12-18T10:11:40;25.47;;;20.53;;
23802;SDS011;12082;51.786;6.018;2022-12-18T10:16:47;23.07;;;20.60;;
23802;SDS011;12082;51.786;6.018;2022-12-18T10:19:35;22.73;;;20.63;;
23802;SDS011;12082;51.786;6.018;2022-12-18T10:27:22;22.80;;;20.37;;
23802;SDS011;12082;51.786;6.018;2022-12-18T10:29:48;23.87;;;21.40;;
23802;SDS011;12082;51.786;6.018;2022-12-18T10:32:15;22.63;;;20.33;;
23802;SDS011;12082;51.786;6.018;2022-12-18T10:34:46;23.00;;;20.70;;
23802;SDS011;12082;51.786;6.018;2022-12-18T10:37:16;25.40;;;20.87;;
23802;SDS011;12082;51.786;6.018;2022-12-18T10:39:42;24.67;;;22.03;;
23802;SDS011;12082;51.786;6.018;2022-12-18T10:42:09;26.30;;;21.43;;
23802;SDS011;12082;51.786;6.018;2022-12-18T10:44:36;23.23;;;21.07;;
23802;SDS011;12082;51.786;6.018;2022-12-18T10:47:03;24.17;;;21.53;;
23802;SDS011;12082;51.786;6.018;2022-12-18T10:49:30;23.83;;;21.53;;
23802;SDS011;12082;51.786;6.018;2022-12-18T10:54:46;22.80;;;20.80;;
23802;SDS011;12082;51.786;6.018;2022-12-18T10:59:52;23.43;;;21.13;;
23802;SDS011;12082;51.786;6.018;2022-12-18T11:02:28;24.57;;;21.93;;
23802;SDS011;12082;51.786;6.018;2022-12-18T11:04:59;24.63;;;22.17;;
23802;SDS011;12082;51.786;6.018;2022-12-18T11:07:25;23.80;;;21.70;;
23802;SDS011;12082;51.786;6.018;2022-12-18T11:10:00;24.73;;;22.37;;
23802;SDS011;12082;51.786;6.018;2022-12-18T11:12:27;24.30;;;21.70;;
23802;SDS011;12082;51.786;6.018;2022-12-18T11:14:54;23.93;;;21.60;;
23802;SDS011;12082;51.786;6.018;2022-12-18T11:17:29;28.13;;;25.17;;
23802;SDS011;12082;51.786;6.018;2022-12-18T11:19:56;24.53;;;22.03;;
23802;SDS011;12082;51.786;6.018;2022-12-18T11:22:23;23.50;;;21.03;;
23802;SDS011;12082;51.786;6.018;2022-12-18T11:24:58;25.20;;;22.67;;
23802;SDS011;12082;51.786;6.018;2022-12-18T11:27:25;24.80;;;21.97;;
23802;SDS011;12082;51.786;6.018;2022-12-18T11:29:51;24.63;;;22.23;;
23802;SDS011;12082;51.786;6.018;2022-12-18T11:32:23;25.23;;;21.73;;
23802;SDS011;12082;51.786;6.018;2022-12-18T11:34:52;25.17;;;22.63;;
23802;SDS011;12082;51.786;6.018;2022-12-18T11:37:22;25.27;;;22.73;;
23802;SDS011;12082;51.786;6.018;2022-12-18T11:40:22;24.97;;;22.40;;
23802;SDS011;12082;51.786;6.018;2022-12-18T11:42:42;25.40;;;22.83;;
23802;SDS011;12082;51.786;6.018;2022-12-18T11:47:42;24.97;;;22.57;;
23802;SDS011;12082;51.786;6.018;2022-12-18T11:50:20;24.90;;;22.37;;
23802;SDS011;12082;51.786;6.018;2022-12-18T11:52:47;23.10;;;21.00;;
23802;SDS011;12082;51.786;6.018;2022-12-18T11:55:14;23.90;;;21.60;;
23802;SDS011;12082;51.786;6.018;2022-12-18T12:00:15;25.53;;;23.03;;
23802;SDS011;12082;51.786;6.018;2022-12-18T12:05:25;25.70;;;23.10;;
23802;SDS011;12082;51.786;6.018;2022-12-18T12:13:21;25.13;;;22.47;;
23802;SDS011;12082;51.786;6.018;2022-12-18T12:16:01;25.40;;;22.73;;
23802;SDS011;12082;51.786;6.018;2022-12-18T12:23:39;26.10;;;23.60;;
23802;SDS011;12082;51.786;6.018;2022-12-18T12:29:06;26.60;;;23.90;;
23802;SDS011;12082;51.786;6.018;2022-12-18T12:31:51;25.90;;;23.23;;
23802;SDS011;12082;51.786;6.018;2022-12-18T12:39:20;25.07;;;22.60;;
23802;SDS011;12082;51.786;6.018;2022-12-18T12:41:47;26.97;;;24.20;;
23802;SDS011;12082;51.786;6.018;2022-12-18T12:44:37;27.83;;;25.23;;
23802;SDS011;12082;51.786;6.018;2022-12-18T12:47:10;26.93;;;24.13;;
23802;SDS011;12082;51.786;6.018;2022-12-18T12:49:38;27.47;;;24.80;;
23802;SDS011;12082;51.786;6.018;2022-12-18T12:52:06;26.60;;;23.80;;
23802;SDS011;12082;51.786;6.018;2022-12-18T12:54:33;27.50;;;24.60;;
23802;SDS011;12082;51.786;6.018;2022-12-18T12:57:02;27.37;;;24.83;;
23802;SDS011;12082;51.786;6.018;2022-12-18T12:59:40;27.93;;;25.07;;
23802;SDS011;12082;51.786;6.018;2022-12-18T13:05:04;27.80;;;25.00;;
23802;SDS011;12082;51.786;6.018;2022-12-18T13:07:40;25.23;;;22.33;;
23802;SDS011;12082;51.786;6.018;2022-12-18T13:20:35;26.93;;;24.43;;
23802;SDS011;12082;51.786;6.018;2022-12-18T13:23:26;27.17;;;24.53;;
23802;SDS011;12082;51.786;6.018;2022-12-18T13:25:54;27.67;;;24.73;;
23802;SDS011;12082;51.786;6.018;2022-12-18T13:28:49;27.13;;;24.43;;
23802;SDS011;12082;51.786;6.018;2022-12-18T13:31:13;28.77;;;25.00;;
23802;SDS011;12082;51.786;6.018;2022-12-18T13:33:45;28.93;;;25.13;;
23802;SDS011;12082;51.786;6.018;2022-12-18T13:36:32;28.33;;;25.43;;
23802;SDS011;12082;51.786;6.018;2022-12-18T13:39:11;30.50;;;26.50;;
23802;SDS011;12082;51.786;6.018;2022-12-18T13:41:41;26.13;;;23.63;;
23802;SDS011;12082;51.786;6.018;2022-12-18T13:44:11;30.10;;;26.67;;
23802;SDS011;12082;51.786;6.018;2022-12-18T13:46:47;28.30;;;25.37;;
23802;SDS011;12082;51.786;6.018;2022-12-18T13:49:20;27.77;;;24.80;;
23802;SDS011;12082;51.786;6.018;2022-12-18T13:51:48;28.07;;;25.23;;
23802;SDS011;12082;51.786;6.018;2022-12-18T13:56:59;29.30;;;25.73;;
23802;SDS011;12082;51.786;6.018;2022-12-18T13:59:25;27.63;;;24.90;;
23802;SDS011;12082;51.786;6.018;2022-12-18T14:01:56;29.17;;;26.23;;
23802;SDS011;12082;51.786;6.018;2022-12-18T14:06:49;28.20;;;25.40;;
23802;SDS011;12082;51.786;6.018;2022-12-18T14:09:23;28.20;;;25.17;;
23802;SDS011;12082;51.786;6.018;2022-12-18T14:11:50;29.60;;;26.70;;
23802;SDS011;12082;51.786;6.018;2022-12-18T14:14:16;28.03;;;25.17;;
23802;SDS011;12082;51.786;6.018;2022-12-18T14:16:43;28.83;;;25.73;;
23802;SDS011;12082;51.786;6.018;2022-12-18T14:19:15;28.23;;;25.40;;
23802;SDS011;12082;51.786;6.018;2022-12-18T14:21:49;28.17;;;25.27;;
23802;SDS011;12082;51.786;6.018;2022-12-18T14:24:17;26.97;;;24.50;;
23802;SDS011;12082;51.786;6.018;2022-12-18T14:26:43;29.40;;;26.00;;
23802;SDS011;12082;51.786;6.018;2022-12-18T14:34:50;28.73;;;25.97;;
23802;SDS011;12082;51.786;6.018;2022-12-18T14:37:22;30.37;;;26.70;;
23802;SDS011;12082;51.786;6.018;2022-12-18T14:42:22;29.67;;;26.47;;
23802;SDS011;12082;51.786;6.018;2022-12-18T14:44:52;30.57;;;27.33;;
23802;SDS011;12082;51.786;6.018;2022-12-18T14:47:38;32.30;;;28.87;;
23802;SDS011;12082;51.786;6.018;2022-12-18T14:50:12;33.00;;;28.43;;
23802;SDS011;12082;51.786;6.018;2022-12-18T14:52:39;31.27;;;28.23;;
23802;SDS011;12082;51.786;6.018;2022-12-18T14:55:05;28.73;;;25.83;;
23802;SDS011;12082;51.786;6.018;2022-12-18T14:57:34;29.23;;;26.23;;
23802;SDS011;12082;51.786;6.018;2022-12-18T15:00:06;29.27;;;26.17;;
23802;SDS011;12082;51.786;6.018;2022-12-18T15:02:34;31.77;;;27.93;;
23802;SDS011;12082;51.786;6.018;2022-12-18T15:05:03;32.40;;;24.60;;
23802;SDS011;12082;51.786;6.018;2022-12-18T15:07:48;28.90;;;25.77;;
23802;SDS011;12082;51.786;6.018;2022-12-18T15:12:44;27.60;;;25.00;;
23802;SDS011;12082;51.786;6.018;2022-12-18T15:18:02;29.73;;;26.53;;
23802;SDS011;12082;51.786;6.018;2022-12-18T15:20:30;29.73;;;26.53;;
23802;SDS011;12082;51.786;6.018;2022-12-18T15:22:57;31.47;;;26.07;;
23802;SDS011;12082;51.786;6.018;2022-12-18T15:27:49;30.00;;;27.00;;
23802;SDS011;12082;51.786;6.018;2022-12-18T15:30:16;30.87;;;26.33;;
23802;SDS011;12082;51.786;6.018;2022-12-18T15:32:43;31.33;;;26.97;;
23802;SDS011;12082;51.786;6.018;2022-12-18T15:37:42;32.57;;;27.20;;
23802;SDS011;12082;51.786;6.018;2022-12-18T15:40:11;31.27;;;27.80;;
23802;SDS011;12082;51.786;6.018;2022-12-18T15:42:37;33.33;;;26.97;;
23802;SDS011;12082;51.786;6.018;2022-12-18T15:45:22;29.03;;;26.17;;
23802;SDS011;12082;51.786;6.018;2022-12-18T15:47:48;32.20;;;26.97;;
23802;SDS011;12082;51.786;6.018;2022-12-18T15:50:14;32.47;;;27.57;;
23802;SDS011;12082;51.786;6.018;2022-12-18T15:52:41;37.40;;;27.73;;
23802;SDS011;12082;51.786;6.018;2022-12-18T15:55:14;33.80;;;28.83;;
23802;SDS011;12082;51.786;6.018;2022-12-18T15:58:00;36.20;;;28.97;;
23802;SDS011;12082;51.786;6.018;2022-12-18T16:00:26;38.77;;;28.70;;
23802;SDS011;12082;51.786;6.018;2022-12-18T16:02:52;30.13;;;27.00;;
23802;SDS011;12082;51.786;6.018;2022-12-18T16:05:18;34.37;;;28.53;;
23802;SDS011;12082;51.786;6.018;2022-12-18T16:07:45;30.27;;;26.17;;
23802;SDS011;12082;51.786;6.018;2022-12-18T16:10:11;30.43;;;26.77;;
23802;SDS011;12082;51.786;6.018;2022-12-18T16:12:38;33.43;;;28.17;;
23802;SDS011;12082;51.786;6.018;2022-12-18T16:15:04;30.00;;;26.67;;